Time;durP1;ratioP1;P1;durP2;ratioP2;P2;SDS_P1;SDS_P2;PMS_P1;PMS_P2;Temp;Humidity;BMP_temperature;BMP_pressure;BME280_temperature;BME280_humidity;BME280_pressure;Samples;Min_cycle;Max_cycle;Signal;HPM_P1;HPM_P2
2023/10/19 00:01:11;;;;;;;18.48;14.23;;;;;;;10.33;67.51;94693.31;4194318;28;20048;-70
2023/10/19 00:03:13;;;;;;;16.70;14.30;;;;;;;10.38;67.81;94692.84;4210609;28;20097;-71
2023/10/19 00:05:16;;;;;;;16.70;14.07;;;;;;;10.38;67.63;94690.22;4189974;28;20052;-71
2023/10/19 00:07:18;;;;;;;16.85;13.20;;;;;;;10.30;67.25;94685.78;4212887;28;20060;-70
2023/10/19 00:09:20;;;;;;;17.23;14.07;;;;;;;10.31;68.11;94684.00;4206652;28;20087;-71
2023/10/19 00:11:24;;;;;;;16.52;13.75;;;;;;;10.30;68.31;94677.09;4211596;28;20462;-71
2023/10/19 00:13:28;;;;;;;15.77;13.95;;;;;;;10.27;68.19;94674.78;4194097;28;20053;-71
2023/10/19 00:15:35;;;;;;;15.32;13.70;;;;;;;10.33;67.93;94676.81;4213152;28;20052;-70
2023/10/19 00:17:38;;;;;;;19.33;12.65;;;;;;;10.31;68.23;94669.09;4177278;28;20138;-69
2023/10/19 00:19:57;;;;;;;14.50;12.90;;;;;;;10.31;67.74;94670.91;4212944;28;20139;-69
2023/10/19 00:22:08;;;;;;;14.88;12.85;;;;;;;10.28;67.56;94668.56;4212956;28;20051;-71
2023/10/19 00:24:10;;;;;;;15.20;12.57;;;;;;;10.21;67.94;94661.31;4212939;28;20591;-69
2023/10/19 00:26:19;;;;;;;14.30;12.35;;;;;;;10.18;68.42;94659.03;4212773;28;20048;-69
2023/10/19 00:28:22;;;;;;;15.43;13.63;;;;;;;10.09;68.31;94665.22;4183104;28;20132;-70
2023/10/19 00:30:30;;;;;;;14.52;12.20;;;;;;;10.08;68.64;94657.50;4212598;28;20079;-71
2023/10/19 00:32:38;;;;;;;15.90;13.43;;;;;;;10.12;68.75;94657.03;4179024;28;20056;-71
2023/10/19 00:34:43;;;;;;;16.63;12.70;;;;;;;10.14;68.08;94654.28;4209701;28;20062;-69
2023/10/19 00:36:45;;;;;;;15.52;13.02;;;;;;;10.11;68.86;94651.94;4191317;28;20469;-69
2023/10/19 00:38:52;;;;;;;15.02;13.30;;;;;;;10.09;68.43;94648.66;4185226;28;20050;-71
2023/10/19 00:43:12;;;;;;;16.95;12.88;;;;;;;10.04;68.14;94652.59;4194449;28;20086;-70
2023/10/19 00:45:15;;;;;;;15.98;13.52;;;;;;;10.05;68.32;94648.19;4190542;28;20052;-69
2023/10/19 00:47:23;;;;;;;16.30;13.07;;;;;;;9.95;68.92;94648.28;4193418;28;20512;-70
2023/10/19 00:49:27;;;;;;;17.85;13.60;;;;;;;9.85;69.11;94647.56;4207842;28;20044;-70
2023/10/19 00:53:39;;;;;;;17.90;12.93;;;;;;;9.95;69.45;94650.09;4193004;28;20052;-71
2023/10/19 00:55:42;;;;;;;16.95;14.15;;;;;;;9.96;69.09;94643.88;4182410;28;20555;-70
2023/10/19 00:57:48;;;;;;;16.20;13.32;;;;;;;9.97;69.12;94646.34;4209698;28;20417;-70
2023/10/19 01:00:00;;;;;;;16.50;13.10;;;;;;;9.98;68.90;94652.38;4191596;28;20056;-70
2023/10/19 01:02:19;;;;;;;14.90;12.48;;;;;;;9.99;68.99;94646.19;4195629;28;20083;-69
2023/10/19 01:04:23;;;;;;;15.18;13.40;;;;;;;10.03;68.78;94647.53;4207275;28;20096;-69
2023/10/19 01:06:25;;;;;;;18.23;13.73;;;;;;;9.99;68.76;94644.38;4212600;28;20419;-70
2023/10/19 01:08:32;;;;;;;15.07;13.27;;;;;;;9.72;68.95;94647.19;4212460;28;20044;-70
2023/10/19 01:10:35;;;;;;;18.42;13.60;;;;;;;9.63;69.87;94649.75;4212648;28;20528;-70
2023/10/19 01:12:42;;;;;;;17.02;14.35;;;;;;;9.58;70.39;94654.63;4172592;28;20086;-71
2023/10/19 01:15:17;;;;;;;16.13;13.85;;;;;;;9.31;71.25;94654.78;4194347;28;20135;-70
2023/10/19 01:17:19;;;;;;;16.35;14.63;;;;;;;9.31;71.92;94662.59;4201542;28;20060;-70
2023/10/19 01:19:23;;;;;;;15.98;14.27;;;;;;;9.28;71.39;94663.75;4194322;28;20059;-70
2023/10/19 01:21:27;;;;;;;17.02;14.15;;;;;;;9.26;71.39;94668.28;4194648;28;20045;-68
2023/10/19 01:23:29;;;;;;;15.70;13.70;;;;;;;9.30;71.03;94661.78;4210556;28;20452;-70
2023/10/19 01:25:40;;;;;;;14.90;13.27;;;;;;;9.38;70.89;94650.59;4203089;28;20066;-71
2023/10/19 01:27:43;;;;;;;16.42;14.55;;;;;;;9.43;70.75;94654.38;4212462;28;20055;-70
2023/10/19 01:29:45;;;;;;;15.98;14.27;;;;;;;9.48;70.83;94650.47;4211350;28;20059;-68
2023/10/19 01:31:56;;;;;;;15.88;12.88;;;;;;;9.45;70.71;94648.19;4203099;28;20072;-70
2023/10/19 01:34:00;;;;;;;15.57;13.85;;;;;;;9.49;70.84;94649.53;4214350;28;20124;-69
2023/10/19 01:36:14;;;;;;;15.05;13.43;;;;;;;9.56;70.25;94645.31;4207946;28;20154;-70
2023/10/19 01:38:16;;;;;;;18.38;14.13;;;;;;;9.64;69.97;94656.63;4215408;28;20150;-71
2023/10/19 01:40:20;;;;;;;19.58;15.30;;;;;;;9.61;69.54;94651.72;4215647;28;20055;-71
2023/10/19 01:42:23;;;;;;;15.75;14.00;;;;;;;9.49;70.02;94652.94;4214420;28;20105;-70
2023/10/19 01:44:26;;;;;;;17.77;15.52;;;;;;;9.46;70.50;94652.41;4213967;28;20059;-70
2023/10/19 01:46:33;;;;;;;18.77;15.68;;;;;;;9.36;71.09;94650.72;4209072;28;20076;-69
2023/10/19 01:48:35;;;;;;;18.67;15.13;;;;;;;9.39;70.60;94650.41;4214681;28;20076;-70
2023/10/19 01:50:39;;;;;;;20.73;15.18;;;;;;;9.36;70.52;94653.34;4197064;28;20048;-69
2023/10/19 01:52:41;;;;;;;21.38;17.73;;;;;;;9.32;70.39;94664.25;4214856;28;20131;-69
2023/10/19 01:54:44;;;;;;;22.08;16.92;;;;;;;9.30;71.63;94660.97;4215611;28;20389;-69
2023/10/19 01:56:46;;;;;;;22.63;17.35;;;;;;;9.29;70.65;94654.94;4215552;28;20048;-70
2023/10/19 01:58:54;;;;;;;19.30;17.20;;;;;;;9.35;70.97;94659.53;4183793;28;20127;-71
2023/10/19 02:01:00;;;;;;;20.30;17.40;;;;;;;9.38;70.03;94647.97;4197273;28;20061;-71
2023/10/19 02:03:07;;;;;;;21.10;17.60;;;;;;;9.40;70.56;94644.22;4211050;28;20507;-71
2023/10/19 02:05:15;;;;;;;18.60;16.50;;;;;;;9.46;70.53;94649.81;4197422;28;20044;-69
2023/10/19 02:07:18;;;;;;;19.48;17.45;;;;;;;9.48;69.53;94645.25;4215360;28;20052;-72
2023/10/19 02:09:26;;;;;;;21.63;17.63;;;;;;;9.53;70.68;94645.59;4214269;28;20048;-70
2023/10/19 02:11:28;;;;;;;20.13;16.73;;;;;;;9.56;69.39;94653.16;4169625;28;20041;-71
2023/10/19 02:13:32;;;;;;;20.75;17.13;;;;;;;9.60;69.77;94650.06;4212383;28;20131;-71
2023/10/19 02:15:35;;;;;;;20.10;17.30;;;;;;;9.61;69.53;94656.97;4204416;28;20050;-70
2023/10/19 02:17:37;;;;;;;22.08;17.33;;;;;;;9.60;69.49;94652.69;4195687;28;20112;-70
2023/10/19 02:19:39;;;;;;;22.65;17.65;;;;;;;9.63;69.78;94652.38;4197329;28;20044;-69
2023/10/19 02:21:41;;;;;;;21.35;18.75;;;;;;;9.62;69.98;94661.19;4208910;28;20484;-71
2023/10/19 02:23:44;;;;;;;24.42;18.33;;;;;;;9.61;70.05;94658.72;4180034;28;20128;-69
2023/10/19 02:25:47;;;;;;;22.17;18.80;;;;;;;9.60;69.50;94652.69;4214624;28;20127;-68
2023/10/19 02:27:49;;;;;;;24.80;19.25;;;;;;;9.60;69.34;94650.06;4189470;28;20049;-68
2023/10/19 02:29:51;;;;;;;22.70;19.75;;;;;;;9.60;69.68;94651.88;4210383;28;20051;-70
2023/10/19 02:31:55;;;;;;;23.67;18.90;;;;;;;9.52;69.82;94657.84;4205957;28;20041;-71
2023/10/19 02:33:58;;;;;;;20.23;17.30;;;;;;;9.48;70.97;94653.09;4205598;28;20048;-70
2023/10/19 02:36:01;;;;;;;22.45;18.83;;;;;;;9.47;70.54;94657.50;4213643;28;20570;-72
2023/10/19 02:38:04;;;;;;;28.73;20.42;;;;;;;9.42;70.81;94655.34;4196781;28;20158;-69
2023/10/19 02:40:31;;;;;;;23.23;20.13;;;;;;;9.36;71.02;94655.97;4213445;28;20084;-71
2023/10/19 02:42:31;;;;;;;22.35;19.83;;;;;;;9.39;70.97;94644.38;4206363;28;20052;-70
2023/10/19 02:44:33;;;;;;;23.30;19.53;;;;;;;9.41;71.11;94648.47;4178274;28;20041;-70
2023/10/19 02:46:41;;;;;;;23.67;19.73;;;;;;;9.46;71.44;94655.03;4192791;28;20059;-70
2023/10/19 02:48:44;;;;;;;22.15;19.77;;;;;;;9.49;70.77;94654.75;4196566;28;20056;-69
2023/10/19 02:50:47;;;;;;;22.98;19.40;;;;;;;9.49;70.00;94649.53;4202780;28;20048;-70
2023/10/19 02:52:49;;;;;;;24.77;19.58;;;;;;;9.47;70.63;94649.66;4213012;28;20409;-71
2023/10/19 02:54:51;;;;;;;32.65;23.05;;;;;;;9.42;70.42;94641.44;4212957;28;20060;-69
2023/10/19 02:56:58;;;;;;;26.08;20.63;;;;;;;9.42;71.29;94644.06;4213449;28;20056;-71
2023/10/19 02:59:04;;;;;;;21.10;18.85;;;;;;;9.47;70.93;94651.47;4206826;28;20044;-70
2023/10/19 03:01:17;;;;;;;21.92;19.42;;;;;;;9.50;70.44;94651.16;4208204;28;20484;-70
2023/10/19 03:03:19;;;;;;;24.27;17.77;;;;;;;9.50;70.50;94649.34;4195661;28;20049;-71
2023/10/19 03:05:23;;;;;;;22.92;19.25;;;;;;;9.52;70.45;94639.56;4214269;28;20101;-68
2023/10/19 03:07:25;;;;;;;23.58;18.67;;;;;;;9.49;70.55;94646.91;4213880;28;20056;-70
2023/10/19 03:11:29;;;;;;;22.38;18.75;;;;;;;9.49;70.57;94633.84;4203800;28;20123;-71
2023/10/19 03:13:35;;;;;;;20.88;17.98;;;;;;;9.50;69.92;94635.47;4209310;28;20662;-69
2023/10/19 03:15:42;;;;;;;21.27;17.95;;;;;;;9.46;70.12;94637.53;4212396;28;20499;-70
2023/10/19 03:17:44;;;;;;;21.45;18.02;;;;;;;9.39;70.14;94645.19;4197039;28;20798;-69
2023/10/19 03:19:48;;;;;;;25.60;20.40;;;;;;;9.21;70.36;94637.38;4179547;28;20199;-68
2023/10/19 03:21:50;;;;;;;25.65;18.98;;;;;;;9.21;70.90;94642.63;4213912;28;20105;-69
2023/10/19 03:23:56;;;;;;;;;;;;;;;9.02;70.09;94630.53;4210534;28;20060;-70
2023/10/19 03:28:11;;;;;;;23.90;19.35;;;;;;;9.00;71.29;94645.53;4195349;28;20087;-70
2023/10/19 03:30:15;;;;;;;22.63;18.42;;;;;;;9.07;71.26;94642.34;4195193;28;20127;-71
2023/10/19 03:32:19;;;;;;;23.77;18.73;;;;;;;9.11;71.15;94644.50;4190745;28;20472;-71
2023/10/19 03:34:23;;;;;;;23.57;19.47;;;;;;;9.14;71.12;94640.75;4200507;28;20442;-71
2023/10/19 03:36:26;;;;;;;25.38;19.15;;;;;;;9.10;71.26;94636.78;4210949;28;20053;-71
2023/10/19 03:38:34;;;;;;;23.15;18.77;;;;;;;9.11;70.99;94641.06;4211906;28;20040;-70
2023/10/19 03:40:38;;;;;;;24.08;17.92;;;;;;;8.96;71.38;94635.56;4213955;28;20392;-69
2023/10/19 03:42:41;;;;;;;26.20;18.75;;;;;;;8.97;70.75;94637.19;4213108;28;20462;-71
2023/10/19 03:47:00;;;;;;;24.23;19.20;;;;;;;9.04;70.71;94630.41;4196950;28;20057;-71
2023/10/19 03:49:13;;;;;;;24.63;18.63;;;;;;;9.07;71.05;94622.25;4196733;28;20052;-70
2023/10/19 03:51:15;;;;;;;25.42;18.52;;;;;;;9.13;70.52;94615.59;4209539;28;20052;-69
2023/10/19 03:53:17;;;;;;;23.65;18.92;;;;;;;9.13;70.58;94621.66;4212383;28;20044;-71
2023/10/19 03:55:22;;;;;;;22.38;18.15;;;;;;;9.17;70.79;94616.94;4189595;28;20080;-69
2023/10/19 03:57:29;;;;;;;24.98;17.58;;;;;;;9.13;70.74;94619.03;4185363;28;20086;-70
2023/10/19 03:59:33;;;;;;;23.52;17.58;;;;;;;9.16;70.84;94615.28;4191524;28;20045;-71
2023/10/19 04:01:38;;;;;;;20.38;17.10;;;;;;;9.20;70.72;94617.44;4174628;28;20324;-71
2023/10/19 04:03:40;;;;;;;22.83;17.20;;;;;;;9.23;69.70;94621.56;4195937;28;20044;-71
2023/10/19 04:05:45;;;;;;;19.67;17.35;;;;;;;9.18;69.79;94623.78;4195557;28;20052;-69
2023/10/19 04:07:49;;;;;;;19.20;16.85;;;;;;;9.10;70.56;94623.72;4213820;28;20044;-71
2023/10/19 04:12:10;;;;;;;24.95;18.40;;;;;;;9.02;71.08;94627.94;4206005;28;20044;-70
2023/10/19 04:14:15;;;;;;;26.42;19.52;;;;;;;9.02;70.09;94625.31;4210746;28;20459;-72
2023/10/19 04:16:16;;;;;;;24.40;18.77;;;;;;;8.87;70.73;94628.63;4212506;28;20424;-69
2023/10/19 04:18:18;;;;;;;26.55;19.25;;;;;;;8.66;71.11;94627.13;4186277;28;20074;-71
2023/10/19 04:22:30;;;;;;;26.65;18.75;;;;;;;8.81;71.68;94622.19;4211872;28;20139;-71
2023/10/19 04:24:33;;;;;;;20.52;17.90;;;;;;;8.89;70.85;94619.66;4178122;28;20049;-71
2023/10/19 04:26:37;;;;;;;25.70;19.35;;;;;;;8.94;70.80;94627.03;4213211;28;20125;-71
2023/10/19 04:28:50;;;;;;;22.80;18.27;;;;;;;8.76;71.23;94620.03;4209673;28;20040;-73
2023/10/19 04:30:52;;;;;;;32.17;19.85;;;;;;;8.63;71.61;94621.41;4192762;28;20584;-70
2023/10/19 04:32:57;;;;;;;23.77;19.10;;;;;;;8.69;71.89;94628.59;4195309;28;20052;-71
2023/10/19 04:35:00;;;;;;;25.02;20.38;;;;;;;8.77;71.09;94615.63;4213151;28;20052;-72
2023/10/19 04:37:06;;;;;;;25.88;18.48;;;;;;;8.57;71.25;94618.38;4207704;28;20043;-72
2023/10/19 04:39:13;;;;;;;27.70;18.23;;;;;;;8.18;72.51;94615.19;4207597;28;20040;-72
2023/10/19 04:41:15;;;;;;;21.40;17.25;;;;;;;8.19;73.57;94616.81;4213344;28;20150;-71
2023/10/19 04:43:17;;;;;;;22.40;18.55;;;;;;;8.30;73.34;94613.19;4205776;28;20123;-71
2023/10/19 04:45:21;;;;;;;22.50;18.05;;;;;;;8.45;73.27;94613.53;4194456;28;20045;-71
2023/10/19 04:47:24;;;;;;;21.90;17.23;;;;;;;8.55;72.57;94606.47;4201836;28;20094;-70
2023/10/19 04:49:29;;;;;;;27.45;17.35;;;;;;;8.63;72.37;94603.94;4181103;28;20068;-72
2023/10/19 04:51:30;;;;;;;22.52;17.65;;;;;;;8.72;72.53;94597.81;4201030;28;20055;-71
2023/10/19 04:53:33;;;;;;;22.08;16.92;;;;;;;8.78;71.92;94597.19;4212429;28;20044;-71
2023/10/19 04:55:35;;;;;;;21.73;17.70;;;;;;;8.82;71.52;94597.72;4193978;28;20048;-71
2023/10/19 04:57:39;;;;;;;;;;;;;;;8.87;71.34;94602.50;4211135;28;20094;-70
2023/10/19 04:59:45;;;;;;;28.02;18.58;;;;;;;8.91;70.55;94612.50;4183141;28;20325;-71
2023/10/19 05:01:47;;;;;;;25.38;18.15;;;;;;;8.96;70.59;94604.19;4195284;28;20102;-70
2023/10/19 05:03:49;;;;;;;30.95;18.55;;;;;;;8.98;70.82;94603.06;4194445;28;20056;-70
2023/10/19 05:05:51;;;;;;;23.42;18.83;;;;;;;9.03;70.52;94594.78;4212144;28;20056;-71
2023/10/19 05:07:55;;;;;;;27.30;18.27;;;;;;;9.04;70.88;94606.06;4207427;28;20243;-71
2023/10/19 05:09:59;;;;;;;22.58;17.77;;;;;;;9.06;70.49;94610.16;4189641;28;20048;-72
2023/10/19 05:12:04;;;;;;;24.35;19.20;;;;;;;9.10;70.45;94608.88;4210805;28;20040;-73
2023/10/19 05:14:06;;;;;;;24.08;17.38;;;;;;;9.20;70.49;94611.41;4201080;28;20055;-70
2023/10/19 05:16:08;;;;;;;22.08;18.45;;;;;;;9.28;70.48;94608.03;4212991;28;20130;-72
2023/10/19 05:18:12;;;;;;;26.95;18.58;;;;;;;9.34;70.21;94610.03;4212469;28;20062;-72
2023/10/19 05:20:14;;;;;;;23.88;18.10;;;;;;;9.40;70.00;94606.81;4212727;28;20043;-71
2023/10/19 05:22:16;;;;;;;21.48;17.73;;;;;;;9.47;69.69;94605.22;4211826;28;20127;-72
2023/10/19 05:24:18;;;;;;;22.17;16.77;;;;;;;9.51;70.03;94606.53;4212026;28;20063;-72
2023/10/19 05:26:20;;;;;;;25.38;17.95;;;;;;;9.63;69.66;94604.47;4211921;28;20052;-71
2023/10/19 05:28:22;;;;;;;23.98;18.02;;;;;;;9.60;69.75;94607.41;4211957;28;20056;-73
2023/10/19 05:30:24;;;;;;;26.00;18.48;;;;;;;9.63;69.67;94615.75;4204043;28;20044;-72
2023/10/19 05:32:26;;;;;;;24.50;18.55;;;;;;;9.67;70.17;94612.84;4194618;28;20052;-71
2023/10/19 05:34:29;;;;;;;24.13;19.08;;;;;;;9.75;70.09;94616.31;4212918;28;20136;-73
2023/10/19 05:36:32;;;;;;;31.88;21.05;;;;;;;9.81;70.80;94614.88;4210457;28;20105;-72
2023/10/19 05:38:34;;;;;;;40.88;23.92;;;;;;;9.78;70.46;94612.56;4193242;28;20059;-71
2023/10/19 05:40:42;;;;;;;30.85;24.45;;;;;;;9.58;70.58;94622.44;4195541;28;20473;-71
2023/10/19 05:42:46;;;;;;;32.70;23.55;;;;;;;9.62;70.87;94627.19;4203627;28;20044;-73
2023/10/19 05:44:48;;;;;;;34.70;24.08;;;;;;;9.54;71.45;94628.94;4192792;28;20698;-72
2023/10/19 05:46:51;;;;;;;33.42;25.13;;;;;;;9.55;71.38;94625.34;4212335;28;20051;-71
2023/10/19 05:48:56;;;;;;;29.50;22.88;;;;;;;9.68;71.97;94632.78;4168378;28;20049;-71
2023/10/19 05:50:58;;;;;;;36.38;23.77;;;;;;;9.78;71.21;94626.44;4191928;28;20076;-71
2023/10/19 05:53:00;;;;;;;32.28;23.77;;;;;;;9.86;70.27;94623.06;4182502;28;20045;-73
2023/10/19 05:55:05;;;;;;;29.00;22.23;;;;;;;9.98;69.98;94631.44;4194514;28;20492;-73
2023/10/19 05:57:08;;;;;;;29.75;22.08;;;;;;;10.03;69.75;94629.19;4201195;28;20127;-71
2023/10/19 05:59:11;;;;;;;32.40;24.42;;;;;;;10.09;69.14;94632.97;4196739;28;20060;-70
2023/10/19 06:01:14;;;;;;;30.27;23.17;;;;;;;10.11;68.80;94625.78;4193934;28;20050;-72
2023/10/19 06:03:16;;;;;;;48.90;26.50;;;;;;;10.19;69.36;94633.66;4211688;28;20350;-72
2023/10/19 06:05:19;;;;;;;37.33;25.83;;;;;;;10.17;69.13;94628.59;4194221;28;20052;-74
2023/10/19 06:07:21;;;;;;;34.83;26.25;;;;;;;10.23;68.18;94635.00;4205966;28;20079;-72
2023/10/19 06:09:29;;;;;;;34.50;25.42;;;;;;;10.17;68.17;94641.66;4176796;28;20041;-73
2023/10/19 06:11:32;;;;;;;41.22;25.98;;;;;;;10.13;69.11;94634.28;4211607;28;20411;-72
2023/10/19 06:13:34;;;;;;;36.38;25.83;;;;;;;10.13;68.82;94632.53;4208888;28;20492;-71
2023/10/19 06:15:36;;;;;;;41.75;27.30;;;;;;;10.13;68.52;94637.75;4193451;28;20169;-72
2023/10/19 06:17:39;;;;;;;37.50;26.10;;;;;;;10.20;69.15;94630.09;4197661;28;20053;-72
2023/10/19 06:19:42;;;;;;;37.50;27.10;;;;;;;10.11;69.06;94634.47;4214050;28;20538;-71
2023/10/19 06:21:44;;;;;;;39.08;26.88;;;;;;;10.13;69.32;94634.28;4214047;28;20048;-72
2023/10/19 06:23:47;;;;;;;36.42;27.70;;;;;;;10.04;69.45;94633.44;4197001;28;20059;-70
2023/10/19 06:25:51;;;;;;;38.13;27.95;;;;;;;9.78;69.45;94634.31;4215610;28;20606;-73
2023/10/19 06:27:56;;;;;;;40.22;27.33;;;;;;;9.73;71.11;94633.16;4193105;28;20063;-70
2023/10/19 06:29:59;;;;;;;38.45;27.73;;;;;;;9.83;71.01;94633.84;4213936;28;20094;-71
2023/10/19 06:32:02;;;;;;;40.65;26.80;;;;;;;10.03;70.64;94623.97;4193827;28;20152;-72
2023/10/19 06:34:05;;;;;;;48.53;27.58;;;;;;;10.20;70.12;94623.03;4214771;28;20503;-70
2023/10/19 06:36:07;;;;;;;39.42;27.08;;;;;;;10.33;69.92;94634.91;4197528;28;20082;-73
2023/10/19 06:38:10;;;;;;;38.13;26.90;;;;;;;10.42;69.50;94629.53;4202179;28;20060;-72
2023/10/19 06:40:16;;;;;;;33.35;25.77;;;;;;;10.57;69.03;94628.91;4211256;28;20048;-72
2023/10/19 06:42:19;;;;;;;29.75;22.60;;;;;;;10.62;68.42;94630.03;4207578;28;20044;-71
2023/10/19 06:44:22;;;;;;;31.42;19.48;;;;;;;10.71;67.79;94637.94;4185702;28;20115;-74
2023/10/19 06:46:27;;;;;;;25.90;19.70;;;;;;;10.80;67.43;94634.38;4214592;28;20044;-71
2023/10/19 06:48:29;;;;;;;25.70;19.00;;;;;;;10.85;67.37;94639.94;4209032;28;20471;-72
2023/10/19 06:50:31;;;;;;;22.40;18.50;;;;;;;10.93;67.18;94641.75;4190323;28;20055;-73
2023/10/19 06:52:35;;;;;;;27.15;18.83;;;;;;;10.80;66.84;94631.75;4196575;28;20083;-73
2023/10/19 06:54:38;;;;;;;28.65;18.75;;;;;;;10.85;67.34;94632.88;4203216;28;20471;-73
2023/10/19 06:56:41;;;;;;;23.65;17.52;;;;;;;10.97;67.51;94620.28;4196598;28;20065;-72
2023/10/19 06:58:43;;;;;;;22.23;16.90;;;;;;;11.06;66.52;94613.25;4195240;28;20071;-73
2023/10/19 07:00:55;;;;;;;23.10;16.80;;;;;;;11.01;65.97;94607.66;4196078;28;20045;-74
2023/10/19 07:03:02;;;;;;;19.80;16.50;;;;;;;11.05;66.06;94601.91;4186969;28;20060;-73
2023/10/19 07:05:05;;;;;;;22.98;16.35;;;;;;;11.08;66.01;94603.41;4214750;28;20050;-74
2023/10/19 07:07:08;;;;;;;19.08;13.70;;;;;;;10.94;65.80;94612.72;4214737;28;20478;-74
2023/10/19 07:09:11;;;;;;;20.13;15.32;;;;;;;10.79;65.81;94619.59;4181845;28;20051;-74
2023/10/19 07:11:13;;;;;;;22.13;15.63;;;;;;;10.18;67.64;94622.38;4196849;28;20077;-73
2023/10/19 07:13:16;;;;;;;19.52;15.82;;;;;;;9.99;67.87;94631.31;4196846;28;20444;-73
2023/10/19 07:15:22;;;;;;;18.33;14.60;;;;;;;10.12;69.08;94628.25;4212351;28;20088;-72
2023/10/19 07:17:24;;;;;;;18.02;13.88;;;;;;;10.28;68.26;94629.28;4196668;28;20103;-74
2023/10/19 07:19:26;;;;;;;18.85;13.73;;;;;;;10.47;68.11;94625.59;4214249;28;20122;-73
2023/10/19 07:21:31;;;;;;;22.35;14.05;;;;;;;10.65;67.55;94624.50;4163113;28;20087;-71
2023/10/19 07:23:33;;;;;;;20.10;13.40;;;;;;;10.85;67.08;94624.19;4209215;28;20499;-73
2023/10/19 07:25:47;;;;;;;21.95;13.82;;;;;;;11.07;66.06;94614.88;4213266;28;20055;-72
2023/10/19 07:27:50;;;;;;;19.48;13.45;;;;;;;11.27;65.29;94613.56;4201601;28;20098;-73
2023/10/19 07:29:52;;;;;;;17.45;14.10;;;;;;;11.43;64.80;94612.72;4210295;28;20139;-73
2023/10/19 07:31:55;;;;;;;18.48;13.75;;;;;;;11.57;64.61;94616.47;4199146;28;20128;-72
2023/10/19 07:33:59;;;;;;;18.50;13.85;;;;;;;11.47;64.50;94624.50;4210215;28;20064;-73
2023/10/19 07:36:06;;;;;;;16.13;13.25;;;;;;;11.39;64.65;94626.31;4212925;28;20128;-73
2023/10/19 07:38:08;;;;;;;34.15;20.67;;;;;;;11.30;64.43;94628.13;4195021;28;20056;-71
2023/10/19 07:40:13;;;;;;;24.17;16.10;;;;;;;11.01;65.26;94629.47;4196276;28;20102;-71
2023/10/19 07:42:17;;;;;;;26.27;17.08;;;;;;;10.88;65.83;94623.88;4179897;28;20057;-72
2023/10/19 07:44:19;;;;;;;14.88;12.75;;;;;;;10.86;66.23;94631.91;4177991;28;20052;-73
2023/10/19 07:46:21;;;;;;;26.92;18.35;;;;;;;10.93;66.05;94633.88;4195506;28;20058;-72
2023/10/19 07:48:24;;;;;;;21.70;14.27;;;;;;;11.00;65.82;94637.47;4192049;28;20532;-73
2023/10/19 07:50:28;;;;;;;18.33;14.55;;;;;;;11.04;65.69;94633.56;4188771;28;20067;-71
2023/10/19 07:52:30;;;;;;;17.42;13.98;;;;;;;11.22;65.53;94626.31;4195452;28;20099;-73
2023/10/19 07:54:35;;;;;;;15.40;13.23;;;;;;;11.39;64.97;94627.13;4208610;28;20053;-72
2023/10/19 07:56:37;;;;;;;20.20;14.32;;;;;;;11.59;64.04;94632.03;4187350;28;20045;-72
2023/10/19 07:58:41;;;;;;;21.75;17.20;;;;;;;11.80;64.22;94636.75;4203093;28;20052;-72
2023/10/19 08:00:46;;;;;;;22.60;17.80;;;;;;;11.97;63.73;94632.31;4211000;28;20040;-73
2023/10/19 08:02:51;;;;;;;27.80;19.33;;;;;;;11.86;63.17;94626.41;4209807;28;20040;-72
2023/10/19 08:04:53;;;;;;;27.75;19.17;;;;;;;11.86;64.20;94629.03;4188256;28;20087;-73
2023/10/19 08:06:57;;;;;;;27.60;18.35;;;;;;;12.13;63.24;94629.63;4213349;28;20052;-75
2023/10/19 08:08:59;;;;;;;27.08;19.65;;;;;;;12.00;62.93;94629.34;4184015;28;20055;-72
2023/10/19 08:11:03;;;;;;;24.05;19.65;;;;;;;12.07;63.27;94628.50;4206142;28;20500;-73
2023/10/19 08:13:05;;;;;;;25.23;19.43;;;;;;;12.34;63.16;94626.41;4197643;28;20102;-75
2023/10/19 08:15:11;;;;;;;30.67;18.73;;;;;;;12.68;62.23;94615.53;4197160;28;20143;-71
2023/10/19 08:17:13;;;;;;;32.58;20.45;;;;;;;12.95;61.32;94621.31;4213409;28;20400;-71
2023/10/19 08:19:18;;;;;;;27.83;20.27;;;;;;;13.08;60.58;94615.47;4204650;28;20048;-72
2023/10/19 08:21:21;;;;;;;25.58;18.95;;;;;;;13.09;60.00;94610.00;4191092;28;20162;-73
2023/10/19 08:23:27;;;;;;;22.38;17.63;;;;;;;12.91;59.99;94617.38;4206165;28;20480;-75
2023/10/19 08:25:30;;;;;;;25.58;17.73;;;;;;;12.86;60.45;94619.69;4196248;28;20102;-73
2023/10/19 08:27:35;;;;;;;21.33;17.70;;;;;;;12.54;61.27;94613.69;4196338;28;20093;-74
2023/10/19 08:29:39;;;;;;;25.08;19.55;;;;;;;12.61;61.27;94621.69;4175849;28;20071;-73
2023/10/19 08:31:46;;;;;;;27.45;22.58;;;;;;;12.41;62.32;94621.28;4195795;28;20127;-72
2023/10/19 08:33:49;;;;;;;27.70;21.40;;;;;;;12.64;61.61;94616.88;4212502;28;20056;-73
2023/10/19 08:36:13;;;;;;;26.55;22.27;;;;;;;12.89;61.89;94614.09;4191926;28;20052;-73
2023/10/19 08:38:17;;;;;;;31.02;21.00;;;;;;;13.25;60.47;94613.47;4211527;28;20051;-74
2023/10/19 08:40:21;;;;;;;26.35;20.08;;;;;;;13.02;59.89;94619.59;4195122;28;20044;-73
2023/10/19 08:42:23;;;;;;;;;;;;;;;12.97;60.12;94608.78;4185988;28;20085;-72
2023/10/19 08:44:25;;;;;;;30.15;19.80;;;;;;;13.02;59.84;94614.34;4190614;28;19920;-74
2023/10/19 08:46:28;;;;;;;24.90;21.65;;;;;;;12.90;60.58;94613.09;4167251;28;20448;-73
2023/10/19 08:48:36;;;;;;;29.52;21.13;;;;;;;12.97;60.70;94618.47;4212117;28;20125;-73
2023/10/19 08:50:38;;;;;;;26.35;20.50;;;;;;;13.04;60.08;94614.16;4212163;28;20484;-74
2023/10/19 08:52:43;;;;;;;28.23;22.13;;;;;;;13.17;60.47;94617.00;4212231;28;20059;-73
2023/10/19 08:54:45;;;;;;;24.77;18.67;;;;;;;13.31;59.84;94611.03;4211722;28;20058;-74
2023/10/19 08:56:49;;;;;;;21.35;17.83;;;;;;;13.63;59.35;94616.94;4187522;28;20485;-73
2023/10/19 08:58:52;;;;;;;25.35;19.23;;;;;;;14.04;58.45;94618.34;4211879;28;20048;-75
2023/10/19 09:00:55;;;;;;;26.02;19.65;;;;;;;14.30;58.00;94618.69;4211904;28;20047;-74
2023/10/19 09:02:59;;;;;;;27.98;21.08;;;;;;;14.27;56.80;94613.78;4213416;28;20464;-74
2023/10/19 09:05:08;;;;;;;22.40;19.98;;;;;;;13.57;58.48;94606.31;4213252;28;20101;-74
2023/10/19 09:07:11;;;;;;;27.92;20.38;;;;;;;13.56;58.89;94609.97;4212224;28;20083;-75
2023/10/19 09:09:19;;;;;;;22.50;18.70;;;;;;;13.89;58.69;94603.34;4195230;28;20040;-75
2023/10/19 09:11:21;;;;;;;23.65;18.98;;;;;;;14.13;57.09;94598.78;4185430;28;20045;-74
2023/10/19 09:13:23;;;;;;;23.77;17.70;;;;;;;14.00;56.62;94596.00;4198301;28;20627;-75
2023/10/19 09:15:28;;;;;;;;;;;;;;;13.95;56.94;94593.09;4213706;28;20373;-75
2023/10/19 09:17:30;;;;;;;21.17;15.30;;;;;;;14.18;57.39;94593.00;4195609;28;20094;-74
2023/10/19 09:19:43;;;;;;;23.00;18.33;;;;;;;14.55;56.78;94578.88;4210594;28;20081;-72
2023/10/19 09:21:46;;;;;;;20.25;16.38;;;;;;;14.72;55.81;94569.72;4210526;28;20075;-71
2023/10/19 09:23:48;;;;;;;20.05;15.75;;;;;;;14.90;55.50;94571.91;4208353;28;20127;-75
2023/10/19 09:25:55;;;;;;;17.02;14.30;;;;;;;14.46;56.02;94567.59;4196708;28;20052;-76
2023/10/19 09:27:57;;;;;;;22.80;15.65;;;;;;;14.38;56.55;94569.53;4211370;28;20087;-74
2023/10/19 09:30:01;;;;;;;16.30;14.27;;;;;;;14.48;56.58;94570.03;4194258;28;20080;-74
2023/10/19 09:32:04;;;;;;;20.63;14.00;;;;;;;14.43;56.48;94561.84;4195578;28;20048;-73
2023/10/19 09:34:11;;;;;;;;;;;;;;;14.04;57.09;94570.94;4179353;28;20092;-74
2023/10/19 09:36:15;;;;;;;19.90;13.57;;;;;;;14.19;57.64;94553.28;4195291;28;19943;-74
2023/10/19 09:38:21;;;;;;;15.32;13.55;;;;;;;14.41;57.33;94556.78;4212636;28;20052;-75
2023/10/19 09:40:24;;;;;;;15.93;13.05;;;;;;;14.58;56.75;94560.03;4178633;28;20437;-75
2023/10/19 09:42:29;;;;;;;18.60;13.40;;;;;;;14.71;56.30;94546.16;4195237;28;20467;-73
2023/10/19 09:44:45;;;;;;;16.25;12.98;;;;;;;14.87;56.23;94545.91;4192103;28;20044;-74
2023/10/19 09:46:50;;;;;;;13.00;11.60;;;;;;;14.98;55.18;94544.59;4194956;28;20126;-74
2023/10/19 09:48:52;;;;;;;12.43;10.60;;;;;;;15.06;54.97;94541.81;4194334;28;20135;-75
2023/10/19 09:50:55;;;;;;;13.68;11.45;;;;;;;15.14;54.64;94551.41;4201923;28;20469;-72